Aérodrome :
LOGIN :

S'inscrire | Disclaimer

   EN    FR    IT 

 










Légende :    VFR   VFR Marginal   IFR   IFR Intensif   IFR Très Intensif
Visi : 
Plafond : 
>= 8 km
>= 3000ft
5 à 8 km
1000 à 3000 ft
1500m à 5 km
500 à 1000 ft
800 à 1500m
200 à 500 ft
< 800m
< 200 ft
Symboles :   Orages  Brouillard  Fortes neiges  Fortes précipitations  Vent > 20 kt
SIGMETs :   Divers  Orages  Givrage  Turbulence  Onde Orograph.  Cendres Volcan.







- Altitude de l'aérodrome : 505 ft
- Code IATA : SXB
- Voir les cartes d'approche


LFST - Strasbourg

DERNIER METAR :
  • 250600Z AUTO 26006KT CAVOK 11/01 Q1008 NOSIG

METARs EXPIRÉS :
  • 250530Z AUTO VRB03KT CAVOK 10/01 Q1008 NOSIG
  • 250500Z AUTO 23003KT 200V260 CAVOK 09/01 Q1008 NOSIG
  • 250430Z AUTO 20003KT 140V230 CAVOK 09/01 Q1008 NOSIG
  • 250400Z AUTO 22004KT CAVOK 09/01 Q1008 NOSIG
  • 250330Z AUTO 20004KT 160V270 CAVOK 09/01 Q1008 NOSIG

TAF TAF LFST
Valide du 25 à 06h jusqu'au 26 à 06h UTC


250500Z 2506/2606 24006KT CAVOK
BECMG 2508/2511 30010KT BKN045
TEMPO 2511/2515 34012G22KT 4500 -SHRA SCT045TCU
BECMG 2515/2517 36008KT -RA
PROB40
TEMPO 2518/2524 3000 RA
BECMG 2600/2602 BKN015
TEMPO 2602/2606 3000 -RADZ OVC010
Pas de NOTAMs connus pour ce terrain.



MET'MAP, la Météo Aéronautique d'un coup d'oeil ! - Copyright ORBIFLY Décembre 2007 - Disclaimer

ORBIFLY MET'MAP TEAM :

Programmation & Développement : Alexandra Zaïnal
Conception & Développement : Baudouin d'Aumeries
Co-Programmation & Développement : Marc-Olivier Méhu
Soutien technique & logistique : Manuel Goepfert

Contact : metmap@orbifly.com




SOURCES & CREDITS :

   NOAA